SUY weather

Suntar Airport
Suntar, Sakha (Yakutia) Republic, Russia

Public forecast

Using degrees Celsius for public forecast. Weather courtesy of forecast.io.

METAR (pilot weather report)

Closest report is Mirny Airport, 102.3 nm (189.5 km) WNW. Retrieved 2019/04/23 15:00 UTC (29 minutes ago):

UERR 231500Z 25004MPS CAVOK 01/M08 Q1012 R25/CLRD60 NOSIG RMK QFE728

TAF (pilot weather forecast)

Closest forecast is Mirny Airport, 102.3 nm (189.5 km) WNW. Retrieved 2019/04/23 15:21 UTC (8 minutes ago):

TAF UERR 231400Z 2315/2415 25007G12MPS 9999 SCT030CB OVC100 TEMPO 2321/2406 2500 -SHSN BKN020CB OVC100